Time;durP1;ratioP1;P1;durP2;ratioP2;P2;SDS_P1;SDS_P2;PMS_P1;PMS_P2;Temp;Humidity;BMP_temperature;BMP_pressure;BME280_temperature;BME280_humidity;BME280_pressure;Samples;Min_cycle;Max_cycle;Signal;HPM_P1;HPM_P2
2023/03/15 00:00:37;;;;;;;;;;;12.30;99.90;;;;;;5054768;28;19916;-72
2023/03/15 00:03:03;;;;;;;;;;;12.20;99.90;;;;;;5055319;28;19916;-72
2023/03/15 00:05:29;;;;;;;;;;;12.20;99.90;;;;;;5054876;28;19909;-71
2023/03/15 00:07:54;;;;;;;;;;;12.20;99.90;;;;;;5054645;28;19936;-71
2023/03/15 00:10:20;;;;;;;;;;;12.30;99.90;;;;;;5054478;28;19912;-71
2023/03/15 00:12:45;;;;;;;;;;;12.20;99.90;;;;;;5054660;28;20282;-71
2023/03/15 00:15:14;;;;;;;;;;;12.30;99.90;;;;;;5054547;28;19909;-71
2023/03/15 00:17:40;;;;;;;;;;;12.30;99.90;;;;;;5054433;28;19909;-71
2023/03/15 00:20:06;;;;;;;;;;;12.40;99.90;;;;;;5054559;28;20264;-71
2023/03/15 00:22:32;;;;;;;;;;;12.40;99.90;;;;;;5054410;28;19913;-71
2023/03/15 00:24:58;;;;;;;;;;;12.50;99.90;;;;;;5054529;28;19913;-71
2023/03/15 00:27:23;;;;;;;;;;;12.30;99.90;;;;;;5054003;28;19995;-71
2023/03/15 00:29:49;;;;;;;;;;;12.40;99.90;;;;;;5054263;28;19913;-71
2023/03/15 00:32:15;;;;;;;;;;;12.30;99.90;;;;;;5051948;28;19909;-74
2023/03/15 00:34:41;;;;;;;;;;;12.20;99.90;;;;;;5054510;28;19909;-71
2023/03/15 00:37:07;;;;;;;;;;;12.30;99.90;;;;;;5053732;28;19944;-71
2023/03/15 00:39:36;;;;;;;;;;;12.40;99.90;;;;;;5053973;28;19909;-71
2023/03/15 00:42:02;;;;;;;;;;;12.40;99.90;;;;;;5054080;28;19909;-72
2023/03/15 00:44:29;;;;;;;;;;;12.40;99.90;;;;;;5054042;28;19909;-71
2023/03/15 00:46:55;;;;;;;;;;;12.50;99.90;;;;;;5054379;28;19974;-71
2023/03/15 00:49:21;;;;;;;;;;;12.50;99.90;;;;;;5053666;28;19913;-71
2023/03/15 00:51:46;;;;;;;;;;;12.60;99.90;;;;;;5054208;28;19915;-71
2023/03/15 00:54:12;;;;;;;;;;;12.60;99.90;;;;;;5053880;28;20321;-71
2023/03/15 00:56:39;;;;;;;;;;;12.60;99.90;;;;;;5054359;28;19913;-71
2023/03/15 00:59:04;;;;;;;;;;;12.50;99.90;;;;;;5054091;28;19912;-71
2023/03/15 01:01:30;;;;;;;;;;;12.40;99.90;;;;;;5054090;28;19909;-70
2023/03/15 01:03:56;;;;;;;;;;;12.40;99.90;;;;;;5053924;28;20459;-70
2023/03/15 01:06:23;;;;;;;;;;;12.50;99.90;;;;;;5054125;28;19909;-71
2023/03/15 01:08:50;;;;;;;;;;;12.50;99.90;;;;;;5053948;28;19919;-71
2023/03/15 01:11:23;;;;;;;;;;;12.60;99.90;;;;;;5054201;28;19920;-71
2023/03/15 01:13:49;;;;;;;;;;;12.60;99.90;;;;;;5054268;28;19924;-71
2023/03/15 01:22:21;;;;;;;;;;;12.70;99.90;;;;;;5053465;28;20004;-71
2023/03/15 01:24:47;;;;;;;;;;;12.70;99.90;;;;;;5053656;28;19948;-72
2023/03/15 01:27:13;;;;;;;;;;;12.70;99.90;;;;;;5053895;28;19956;-71
2023/03/15 01:29:38;;;;;;;;;;;12.80;99.90;;;;;;5053436;28;20070;-71
2023/03/15 01:32:04;;;;;;;;;;;12.80;99.90;;;;;;5053316;28;19920;-70
2023/03/15 01:34:30;;;;;;;;;;;12.80;99.90;;;;;;5053276;28;19908;-71
2023/03/15 01:36:56;;;;;;;;;;;12.80;99.90;;;;;;5053443;28;19909;-71
2023/03/15 01:39:21;;;;;;;;;;;12.80;99.90;;;;;;5053078;28;19959;-71
2023/03/15 01:41:47;;;;;;;;;;;12.70;99.90;;;;;;5053385;28;20002;-71
2023/03/15 01:44:14;;;;;;;;;;;12.70;99.90;;;;;;5052584;28;19909;-70
2023/03/15 01:46:40;;;;;;;;;;;12.70;99.90;;;;;;5053659;28;19909;-70
2023/03/15 01:49:08;;;;;;;;;;;12.70;99.90;;;;;;5053284;28;20180;-71
2023/03/15 01:51:43;;;;;;;;;;;12.70;99.90;;;;;;5053555;28;20114;-71
2023/03/15 01:54:09;;;;;;;;;;;12.60;99.90;;;;;;5052959;28;19916;-71
2023/03/15 01:56:37;;;;;;;;;;;12.60;99.90;;;;;;5053289;28;19946;-71
2023/03/15 01:59:04;;;;;;;;;;;12.70;99.90;;;;;;5053074;28;19961;-72
2023/03/15 02:01:31;;;;;;;;;;;12.60;99.90;;;;;;5053465;28;19909;-71
2023/03/15 02:04:00;;;;;;;;;;;12.70;99.90;;;;;;5051334;28;19913;-71
2023/03/15 02:06:26;;;;;;;;;;;12.70;99.90;;;;;;5052890;28;20017;-71
2023/03/15 02:08:54;;;;;;;;;;;12.70;99.90;;;;;;5052831;28;19960;-71
2023/03/15 02:11:21;;;;;;;;;;;12.80;99.90;;;;;;5052962;28;19969;-71
2023/03/15 02:13:47;;;;;;;;;;;12.70;99.90;;;;;;5051334;28;19908;-71
2023/03/15 02:16:14;;;;;;;;;;;12.70;99.90;;;;;;5053085;28;20417;-72
2023/03/15 02:18:40;;;;;;;;;;;12.70;99.90;;;;;;5053200;28;20005;-72
2023/03/15 02:21:05;;;;;;;;;;;12.70;99.90;;;;;;5051395;28;20430;-72
2023/03/15 02:23:31;;;;;;;;;;;12.70;99.90;;;;;;5052899;28;19921;-72
2023/03/15 02:26:00;;;;;;;;;;;12.60;99.90;;;;;;5053149;28;19995;-71
2023/03/15 02:28:26;;;;;;;;;;;12.60;99.90;;;;;;5051351;28;19909;-71
2023/03/15 02:30:52;;;;;;;;;;;12.50;99.90;;;;;;5052731;28;19912;-71
2023/03/15 02:33:20;;;;;;;;;;;12.50;99.90;;;;;;5052544;28;20316;-71
2023/03/15 02:35:46;;;;;;;;;;;12.60;99.90;;;;;;5052776;28;19917;-71
2023/03/15 02:38:12;;;;;;;;;;;12.60;99.90;;;;;;5051724;28;19916;-70
2023/03/15 02:40:38;;;;;;;;;;;12.60;99.90;;;;;;5052506;28;19913;-71
2023/03/15 02:43:10;;;;;;;;;;;12.60;99.90;;;;;;5052599;28;19913;-71
2023/03/15 02:45:37;;;;;;;;;;;12.60;99.90;;;;;;5056864;28;19920;-71
2023/03/15 02:48:04;;;;;;;;;;;12.60;99.90;;;;;;5054201;28;19909;-71
2023/03/15 02:50:29;;;;;;;;;;;12.60;99.90;;;;;;5052190;28;20347;-71
2023/03/15 02:52:55;;;;;;;;;;;12.60;99.90;;;;;;5053155;28;19909;-71
2023/03/15 02:55:21;;;;;;;;;;;12.60;99.90;;;;;;5054114;28;19930;-71
2023/03/15 02:57:47;;;;;;;;;;;12.50;99.90;;;;;;5055851;28;19909;-71
2023/03/15 03:00:13;;;;;;;;;;;12.50;99.90;;;;;;5056182;28;19963;-71
2023/03/15 03:02:40;;;;;;;;;;;12.50;99.90;;;;;;5055480;28;19913;-72
2023/03/15 03:05:06;;;;;;;;;;;12.50;99.90;;;;;;5056521;28;19931;-71
2023/03/15 03:07:32;;;;;;;;;;;12.50;99.90;;;;;;5056145;28;19913;-71
2023/03/15 03:09:57;;;;;;;;;;;12.50;99.90;;;;;;5055770;28;19956;-71
2023/03/15 03:12:23;;;;;;;;;;;12.50;99.90;;;;;;5055963;28;19909;-71
2023/03/15 03:14:49;;;;;;;;;;;12.50;99.90;;;;;;5055772;28;19908;-71
2023/03/15 03:17:15;;;;;;;;;;;12.50;99.90;;;;;;5054371;28;19920;-71
2023/03/15 03:19:40;;;;;;;;;;;12.60;99.90;;;;;;5055737;28;19909;-71
2023/03/15 03:22:06;;;;;;;;;;;12.60;99.90;;;;;;5054644;28;20065;-71
2023/03/15 03:24:32;;;;;;;;;;;12.50;99.90;;;;;;5055436;28;19917;-72
2023/03/15 03:26:58;;;;;;;;;;;12.50;99.90;;;;;;5055617;28;19913;-71
2023/03/15 03:29:24;;;;;;;;;;;12.60;99.90;;;;;;5055279;28;19913;-72
2023/03/15 03:31:50;;;;;;;;;;;12.60;99.90;;;;;;5054659;28;19909;-71
2023/03/15 03:34:15;;;;;;;;;;;12.60;99.90;;;;;;5055563;28;19909;-70
2023/03/15 03:36:42;;;;;;;;;;;12.60;99.90;;;;;;5055537;28;20319;-70
2023/03/15 03:39:07;;;;;;;;;;;12.70;99.90;;;;;;5054896;28;19913;-71
2023/03/15 03:41:33;;;;;;;;;;;12.70;99.90;;;;;;5054960;28;19989;-71
2023/03/15 03:43:59;;;;;;;;;;;12.80;99.90;;;;;;5054564;28;19909;-70
2023/03/15 03:46:25;;;;;;;;;;;12.70;99.90;;;;;;5055513;28;19915;-72
2023/03/15 03:48:51;;;;;;;;;;;12.80;99.90;;;;;;5053889;28;20031;-71
2023/03/15 03:51:17;;;;;;;;;;;12.80;99.90;;;;;;5055227;28;19919;-71
2023/03/15 03:53:43;;;;;;;;;;;12.80;99.90;;;;;;5055075;28;19909;-71
2023/03/15 03:56:08;;;;;;;;;;;12.80;99.90;;;;;;5053909;28;19999;-71
2023/03/15 03:58:34;;;;;;;;;;;12.80;99.90;;;;;;5055190;28;20280;-71
2023/03/15 04:01:00;;;;;;;;;;;12.70;99.90;;;;;;5054175;28;19909;-71
2023/03/15 04:03:26;;;;;;;;;;;12.80;99.90;;;;;;5055128;28;19935;-71
2023/03/15 04:05:56;;;;;;;;;;;12.80;99.90;;;;;;5054400;28;19916;-71
2023/03/15 04:08:22;;;;;;;;;;;12.70;99.90;;;;;;5054944;28;19940;-72
2023/03/15 04:10:52;;;;;;;;;;;12.70;99.90;;;;;;5054348;28;20488;-72
2023/03/15 04:13:18;;;;;;;;;;;12.80;99.90;;;;;;5054524;28;19913;-71
2023/03/15 04:15:43;;;;;;;;;;;12.80;99.90;;;;;;5054578;28;20469;-71
2023/03/15 04:18:09;;;;;;;;;;;12.70;99.90;;;;;;5054578;28;19947;-71
2023/03/15 04:20:35;;;;;;;;;;;12.70;99.90;;;;;;5052993;28;19963;-71
2023/03/15 04:23:01;;;;;;;;;;;12.80;99.90;;;;;;5054579;28;19935;-72
2023/03/15 04:25:26;;;;;;;;;;;12.70;99.90;;;;;;5054170;28;19909;-72
2023/03/15 04:27:58;;;;;;;;;;;12.70;99.90;;;;;;5054474;28;19916;-72
2023/03/15 04:30:28;;;;;;;;;;;12.80;99.90;;;;;;5053853;28;19920;-72
2023/03/15 04:32:57;;;;;;;;;;;12.80;99.90;;;;;;5054694;28;19909;-71
2023/03/15 04:35:24;;;;;;;;;;;12.70;99.90;;;;;;5053141;28;19917;-71
2023/03/15 04:37:50;;;;;;;;;;;12.70;99.90;;;;;;5054795;28;19995;-71
2023/03/15 04:40:16;;;;;;;;;;;12.70;99.90;;;;;;5054539;28;19909;-72
2023/03/15 04:42:42;;;;;;;;;;;12.60;99.90;;;;;;5055335;28;19916;-72
2023/03/15 04:45:07;;;;;;;;;;;12.60;99.90;;;;;;5055164;28;19913;-72
2023/03/15 04:47:33;;;;;;;;;;;12.60;99.90;;;;;;5055433;28;20004;-71
2023/03/15 04:49:59;;;;;;;;;;;12.50;99.90;;;;;;5054575;28;19931;-72
2023/03/15 04:52:25;;;;;;;;;;;12.50;99.90;;;;;;5054285;28;19951;-71
2023/03/15 04:54:50;;;;;;;;;;;12.40;99.90;;;;;;5053934;28;20422;-71
2023/03/15 04:57:16;;;;;;;;;;;12.30;99.90;;;;;;5054033;28;19995;-72
2023/03/15 04:59:42;;;;;;;;;;;12.30;99.90;;;;;;5053493;28;19956;-72
2023/03/15 05:02:07;;;;;;;;;;;12.20;99.90;;;;;;5053844;28;19988;-72
2023/03/15 05:04:33;;;;;;;;;;;12.20;99.90;;;;;;5053880;28;19909;-70
2023/03/15 05:06:59;;;;;;;;;;;12.20;99.90;;;;;;5053976;28;19913;-71
2023/03/15 05:09:24;;;;;;;;;;;12.10;99.90;;;;;;5053203;28;19912;-71
2023/03/15 05:11:50;;;;;;;;;;;12.10;99.90;;;;;;5052378;28;20389;-71
2023/03/15 05:14:16;;;;;;;;;;;12.10;99.90;;;;;;5053449;28;19916;-71
2023/03/15 05:16:42;;;;;;;;;;;12.00;99.90;;;;;;5053123;28;19908;-71
2023/03/15 05:19:08;;;;;;;;;;;12.00;99.90;;;;;;5052740;28;19944;-71
2023/03/15 05:21:34;;;;;;;;;;;11.90;99.90;;;;;;5053937;28;19913;-73
2023/03/15 05:23:59;;;;;;;;;;;11.80;99.90;;;;;;5052052;28;19923;-71
2023/03/15 05:26:25;;;;;;;;;;;11.70;99.90;;;;;;5053358;28;19923;-71
2023/03/15 05:28:51;;;;;;;;;;;11.60;99.90;;;;;;5053296;28;19959;-72
2023/03/15 05:31:17;;;;;;;;;;;11.60;99.90;;;;;;5051879;28;20000;-72
2023/03/15 05:33:45;;;;;;;;;;;11.60;99.90;;;;;;5053408;28;20403;-72
2023/03/15 05:36:14;;;;;;;;;;;11.50;99.90;;;;;;5053298;28;19908;-71
2023/03/15 05:38:41;;;;;;;;;;;11.50;99.90;;;;;;5053264;28;19909;-70
2023/03/15 05:41:09;;;;;;;;;;;11.40;99.90;;;;;;5053198;28;19909;-70
2023/03/15 05:43:35;;;;;;;;;;;11.40;99.90;;;;;;5053139;28;20299;-72
2023/03/15 05:46:01;;;;;;;;;;;11.40;99.90;;;;;;5053184;28;19915;-71
2023/03/15 05:48:27;;;;;;;;;;;11.40;99.90;;;;;;5053669;28;19909;-71
2023/03/15 05:50:52;;;;;;;;;;;11.30;99.90;;;;;;5051583;28;20015;-71
2023/03/15 05:53:18;;;;;;;;;;;11.30;99.90;;;;;;5053092;28;19948;-71
2023/03/15 05:55:44;;;;;;;;;;;11.40;99.90;;;;;;5052060;28;19913;-72
2023/03/15 05:58:09;;;;;;;;;;;11.30;99.90;;;;;;5053471;28;19976;-70
2023/03/15 06:00:35;;;;;;;;;;;11.30;99.90;;;;;;5052754;28;19987;-71
2023/03/15 06:03:01;;;;;;;;;;;11.30;99.90;;;;;;5052694;28;20359;-71
2023/03/15 06:05:26;;;;;;;;;;;11.20;99.90;;;;;;5051514;28;19991;-71
2023/03/15 06:07:52;;;;;;;;;;;11.20;99.90;;;;;;5052923;28;19908;-71
2023/03/15 06:10:18;;;;;;;;;;;11.20;99.90;;;;;;5052358;28;19921;-70
2023/03/15 06:12:43;;;;;;;;;;;11.20;99.90;;;;;;5053095;28;20015;-70
2023/03/15 06:15:09;;;;;;;;;;;11.20;99.90;;;;;;5053066;28;19913;-71
2023/03/15 06:17:35;;;;;;;;;;;11.20;99.90;;;;;;5053276;28;19909;-71
2023/03/15 06:20:01;;;;;;;;;;;11.30;99.90;;;;;;5052473;28;19916;-71
2023/03/15 06:22:26;;;;;;;;;;;11.20;99.90;;;;;;5052983;28;19913;-70
2023/03/15 06:24:55;;;;;;;;;;;11.20;99.90;;;;;;5051959;28;19912;-71
2023/03/15 06:27:21;;;;;;;;;;;11.10;99.90;;;;;;5051816;28;19913;-71
2023/03/15 06:29:48;;;;;;;;;;;11.00;99.90;;;;;;5052261;28;19967;-71
2023/03/15 06:32:13;;;;;;;;;;;10.90;99.90;;;;;;5056329;28;20355;-71
2023/03/15 06:34:39;;;;;;;;;;;10.80;99.90;;;;;;5056251;28;19978;-71
2023/03/15 06:37:05;;;;;;;;;;;10.70;99.90;;;;;;5056030;28;20012;-70
2023/03/15 06:39:33;;;;;;;;;;;10.50;99.90;;;;;;5056385;28;19986;-71
2023/03/15 06:42:01;;;;;;;;;;;10.50;99.90;;;;;;5056251;28;19920;-70
2023/03/15 06:44:27;;;;;;;;;;;10.40;99.90;;;;;;5056450;28;20282;-70
2023/03/15 06:46:52;;;;;;;;;;;10.30;99.90;;;;;;5056540;28;19913;-70
2023/03/15 06:49:18;;;;;;;;;;;10.20;99.90;;;;;;5056208;28;19957;-70
2023/03/15 06:51:44;;;;;;;;;;;10.20;99.90;;;;;;5056533;28;19915;-71
2023/03/15 06:54:09;;;;;;;;;;;10.20;99.90;;;;;;5054666;28;19913;-70
2023/03/15 06:56:36;;;;;;;;;;;10.20;99.90;;;;;;5056540;28;20178;-70
2023/03/15 06:59:02;;;;;;;;;;;10.10;99.90;;;;;;5055839;28;20374;-70
2023/03/15 07:01:28;;;;;;;;;;;10.10;99.90;;;;;;5056242;28;20339;-69
2023/03/15 07:03:53;;;;;;;;;;;10.10;99.90;;;;;;5056275;28;19913;-70
2023/03/15 07:06:19;;;;;;;;;;;10.10;99.90;;;;;;5054692;28;19909;-70
2023/03/15 07:08:45;;;;;;;;;;;10.10;99.90;;;;;;5056188;28;19915;-69
2023/03/15 07:11:11;;;;;;;;;;;10.10;99.90;;;;;;5054147;28;19913;-70
2023/03/15 07:13:37;;;;;;;;;;;10.10;99.90;;;;;;5056216;28;20290;-70
2023/03/15 07:16:03;;;;;;;;;;;10.20;99.90;;;;;;5055977;28;19915;-70
2023/03/15 07:18:29;;;;;;;;;;;10.20;99.90;;;;;;5056293;28;19909;-69
2023/03/15 07:20:58;;;;;;;;;;;10.20;99.90;;;;;;5055158;28;19920;-70
2023/03/15 07:23:24;;;;;;;;;;;10.20;99.90;;;;;;5055362;28;20236;-70
2023/03/15 07:25:49;;;;;;;;;;;10.20;99.90;;;;;;5055442;28;19909;-70
2023/03/15 07:28:15;;;;;;;;;;;10.30;99.90;;;;;;5055354;28;19967;-70
2023/03/15 07:30:40;;;;;;;;;;;10.40;99.90;;;;;;5055341;28;19912;-69
2023/03/15 07:33:06;;;;;;;;;;;10.40;99.90;;;;;;5055209;28;19916;-70
2023/03/15 07:35:32;;;;;;;;;;;10.50;99.90;;;;;;5055579;28;19908;-70
2023/03/15 07:37:57;;;;;;;;;;;10.60;99.90;;;;;;5055591;28;19935;-70
2023/03/15 07:40:25;;;;;;;;;;;10.60;99.90;;;;;;5054113;28;19959;-70
2023/03/15 07:42:50;;;;;;;;;;;10.60;99.90;;;;;;5055563;28;19955;-69
2023/03/15 07:45:16;;;;;;;;;;;10.60;99.90;;;;;;5053289;28;19917;-70
2023/03/15 07:47:42;;;;;;;;;;;10.60;99.90;;;;;;5054616;28;19909;-72
2023/03/15 07:50:08;;;;;;;;;;;10.60;99.90;;;;;;5054310;28;19916;-70
2023/03/15 07:52:34;;;;;;;;;;;10.50;99.90;;;;;;5054649;28;19917;-70
2023/03/15 07:54:59;;;;;;;;;;;10.50;99.90;;;;;;5054876;28;19932;-70
2023/03/15 07:57:25;;;;;;;;;;;10.50;99.90;;;;;;5055080;28;20007;-69
2023/03/15 07:59:52;;;;;;;;;;;10.50;99.90;;;;;;5054635;28;20355;-69
2023/03/15 08:02:18;;;;;;;;;;;10.50;99.90;;;;;;5054098;28;20009;-71
2023/03/15 08:04:43;;;;;;;;;;;10.50;99.90;;;;;;5054374;28;19987;-69
2023/03/15 08:07:09;;;;;;;;;;;10.60;99.90;;;;;;5054722;28;20362;-70
2023/03/15 08:09:35;;;;;;;;;;;10.60;99.90;;;;;;5054858;28;19922;-70
2023/03/15 08:12:01;;;;;;;;;;;10.60;99.90;;;;;;5056870;28;19909;-70
2023/03/15 08:14:27;;;;;;;;;;;10.60;99.90;;;;;;5055785;28;19932;-70
2023/03/15 08:16:53;;;;;;;;;;;10.60;99.90;;;;;;5056247;28;19912;-70
2023/03/15 08:19:20;;;;;;;;;;;10.70;99.90;;;;;;5057746;28;19909;-70
2023/03/15 08:21:46;;;;;;;;;;;10.70;99.90;;;;;;5054600;28;19912;-69
2023/03/15 08:24:12;;;;;;;;;;;10.70;99.90;;;;;;5054678;28;19962;-70
2023/03/15 08:26:38;;;;;;;;;;;10.80;99.90;;;;;;5054183;28;19913;-70
2023/03/15 08:29:04;;;;;;;;;;;10.80;99.90;;;;;;5053820;28;20399;-70
2023/03/15 08:31:30;;;;;;;;;;;10.90;99.90;;;;;;5054695;28;19909;-69
2023/03/15 08:33:56;;;;;;;;;;;11.00;99.90;;;;;;5054542;28;19915;-70
2023/03/15 08:36:21;;;;;;;;;;;11.00;99.90;;;;;;5054422;28;20083;-69
2023/03/15 08:38:47;;;;;;;;;;;11.00;99.90;;;;;;5054413;28;19924;-69
2023/03/15 08:41:13;;;;;;;;;;;11.00;99.90;;;;;;5054031;28;19915;-70
2023/03/15 08:43:39;;;;;;;;;;;10.90;99.90;;;;;;5053893;28;19908;-70
2023/03/15 08:46:04;;;;;;;;;;;10.90;99.90;;;;;;5053611;28;19909;-70
2023/03/15 08:48:30;;;;;;;;;;;10.90;99.90;;;;;;5053666;28;19948;-70
2023/03/15 08:51:05;;;;;;;;;;;11.00;99.90;;;;;;5053081;28;19917;-70
2023/03/15 08:53:31;;;;;;;;;;;11.00;99.90;;;;;;5052710;28;19909;-70
2023/03/15 08:55:57;;;;;;;;;;;11.00;99.90;;;;;;5052514;28;19909;-71
2023/03/15 08:58:23;;;;;;;;;;;11.00;99.90;;;;;;5053831;28;19916;-70
2023/03/15 09:00:50;;;;;;;;;;;11.00;99.90;;;;;;5053620;28;20021;-69
2023/03/15 09:03:16;;;;;;;;;;;11.10;99.90;;;;;;5054402;28;19940;-70
2023/03/15 09:05:42;;;;;;;;;;;11.00;99.90;;;;;;5053574;28;20309;-69
2023/03/15 09:08:07;;;;;;;;;;;11.00;99.90;;;;;;5053736;28;19917;-69
2023/03/15 09:10:33;;;;;;;;;;;11.00;99.90;;;;;;5053192;28;19939;-70
2023/03/15 09:12:59;;;;;;;;;;;11.10;99.90;;;;;;5053504;28;19919;-70
2023/03/15 09:15:24;;;;;;;;;;;11.00;99.90;;;;;;5053310;28;19989;-71
2023/03/15 09:17:50;;;;;;;;;;;11.00;99.90;;;;;;5053704;28;19920;-70
2023/03/15 09:20:17;;;;;;;;;;;11.10;99.90;;;;;;5053515;28;19916;-70
2023/03/15 09:22:48;;;;;;;;;;;11.00;99.90;;;;;;5052907;28;20371;-69
2023/03/15 09:25:13;;;;;;;;;;;11.00;99.90;;;;;;5053693;28;19978;-70
2023/03/15 09:27:39;;;;;;;;;;;11.00;99.90;;;;;;5053650;28;20426;-70
2023/03/15 09:30:05;;;;;;;;;;;11.10;99.90;;;;;;5053219;28;20367;-70
2023/03/15 09:32:35;;;;;;;;;;;11.00;99.90;;;;;;5053081;28;19909;-70
2023/03/15 09:35:03;;;;;;;;;;;11.10;99.90;;;;;;5052968;28;19908;-69
2023/03/15 09:37:29;;;;;;;;;;;11.20;99.90;;;;;;5053375;28;20003;-70
2023/03/15 09:39:55;;;;;;;;;;;11.20;99.90;;;;;;5051865;28;19997;-70
2023/03/15 09:42:27;;;;;;;;;;;11.30;99.90;;;;;;5052975;28;19915;-70
2023/03/15 09:45:19;;;;;;;;;;;11.40;99.90;;;;;;5053314;28;19995;-70
2023/03/15 09:48:07;;;;;;;;;;;11.50;99.90;;;;;;5044157;28;19909;-69
2023/03/15 09:50:45;;;;;;;;;;;11.50;99.90;;;;;;5049150;28;20309;-70
2023/03/15 09:53:11;;;;;;;;;;;11.50;99.90;;;;;;5052827;28;19917;-71
2023/03/15 09:55:36;;;;;;;;;;;11.50;99.90;;;;;;5052920;28;19916;-70
2023/03/15 09:58:03;;;;;;;;;;;11.60;99.90;;;;;;5051847;28;20386;-71
2023/03/15 10:00:37;;;;;;;;;;;11.70;99.90;;;;;;5052873;28;19915;-71
2023/03/15 10:03:06;;;;;;;;;;;11.80;99.90;;;;;;5052851;28;20212;-71
2023/03/15 10:05:35;;;;;;;;;;;11.90;99.90;;;;;;5056398;28;19915;-71
2023/03/15 10:08:01;;;;;;;;;;;11.90;99.90;;;;;;5056663;28;19923;-71
2023/03/15 10:10:33;;;;;;;;;;;12.00;99.90;;;;;;5057110;28;19916;-70
2023/03/15 10:13:08;;;;;;;;;;;12.10;99.90;;;;;;5056471;28;19921;-71
2023/03/15 10:15:36;;;;;;;;;;;12.10;99.90;;;;;;5056778;28;19990;-71
2023/03/15 10:18:11;;;;;;;;;;;12.20;99.90;;;;;;5056567;28;19909;-71
2023/03/15 10:20:43;;;;;;;;;;;12.20;99.90;;;;;;5056901;28;20381;-70
2023/03/15 10:23:19;;;;;;;;;;;12.20;99.90;;;;;;5056577;28;19928;-71
2023/03/15 10:25:45;;;;;;;;;;;12.20;99.90;;;;;;5056807;28;20281;-71
2023/03/15 10:28:23;;;;;;;;;;;12.20;99.90;;;;;;5056866;28;19909;-71
2023/03/15 10:30:50;;;;;;;;;;;12.30;99.90;;;;;;5056137;28;19913;-70
2023/03/15 10:33:31;;;;;;;;;;;12.30;99.90;;;;;;5056054;28;19915;-70
2023/03/15 10:35:56;;;;;;;;;;;12.40;99.90;;;;;;5056820;28;19909;-72
2023/03/15 10:38:23;;;;;;;;;;;12.50;99.90;;;;;;5056439;28;19909;-70
2023/03/15 10:40:53;;;;;;;;;;;12.50;99.90;;;;;;5056164;28;20382;-70
2023/03/15 10:43:23;;;;;;;;;;;12.50;99.90;;;;;;5056604;28;19954;-71
2023/03/15 10:45:59;;;;;;;;;;;12.50;99.90;;;;;;5056149;28;19912;-70
2023/03/15 10:48:30;;;;;;;;;;;12.60;99.90;;;;;;5056442;28;19909;-70
2023/03/15 10:50:55;;;;;;;;;;;12.60;99.90;;;;;;5056126;28;19989;-70
2023/03/15 10:53:24;;;;;;;;;;;12.70;99.90;;;;;;5056354;28;20336;-70
2023/03/15 10:55:57;;;;;;;;;;;12.80;99.90;;;;;;5056268;28;19909;-70
2023/03/15 10:58:26;;;;;;;;;;;12.80;99.90;;;;;;5055951;28;20398;-71
2023/03/15 11:00:57;;;;;;;;;;;12.80;99.90;;;;;;5055450;28;20425;-70
2023/03/15 11:03:24;;;;;;;;;;;12.90;99.90;;;;;;5054648;28;19916;-71
2023/03/15 11:05:54;;;;;;;;;;;13.00;99.90;;;;;;5055797;28;20302;-70
2023/03/15 11:08:38;;;;;;;;;;;12.90;99.90;;;;;;5056052;28;20166;-71
2023/03/15 11:11:04;;;;;;;;;;;13.00;99.90;;;;;;5055786;28;19913;-70
2023/03/15 11:13:31;;;;;;;;;;;13.00;99.90;;;;;;5055706;28;20295;-71
2023/03/15 11:16:03;;;;;;;;;;;13.00;99.90;;;;;;5054914;28;19909;-70
2023/03/15 11:18:49;;;;;;;;;;;13.00;99.90;;;;;;5055667;28;19913;-70
2023/03/15 11:21:16;;;;;;;;;;;13.00;99.90;;;;;;5055020;28;19940;-71
2023/03/15 11:23:49;;;;;;;;;;;13.00;99.90;;;;;;5053850;28;20263;-72
2023/03/15 11:26:20;;;;;;;;;;;13.10;99.90;;;;;;5055976;28;19915;-71
2023/03/15 11:28:51;;;;;;;;;;;13.00;99.90;;;;;;5055472;28;19913;-71
2023/03/15 11:31:20;;;;;;;;;;;13.00;99.90;;;;;;5055561;28;19915;-71
2023/03/15 11:34:04;;;;;;;;;;;13.20;99.90;;;;;;5055567;28;19912;-71
2023/03/15 11:36:31;;;;;;;;;;;13.20;99.90;;;;;;5055536;28;20264;-70
2023/03/15 11:38:58;;;;;;;;;;;13.30;99.90;;;;;;5055143;28;19909;-71
2023/03/15 11:41:28;;;;;;;;;;;13.50;99.90;;;;;;5054846;28;19916;-71
2023/03/15 11:44:14;;;;;;;;;;;13.60;99.90;;;;;;5054640;28;19909;-71
2023/03/15 11:46:47;;;;;;;;;;;13.70;99.90;;;;;;5054820;28;19948;-71
2023/03/15 11:49:16;;;;;;;;;;;13.80;99.90;;;;;;5054911;28;20286;-71
2023/03/15 11:51:41;;;;;;;;;;;13.90;99.90;;;;;;5054712;28;19963;-71
2023/03/15 11:54:07;;;;;;;;;;;13.80;99.90;;;;;;5053932;28;19909;-71
2023/03/15 11:56:42;;;;;;;;;;;13.90;99.90;;;;;;5055035;28;20444;-72
2023/03/15 11:59:11;;;;;;;;;;;13.90;99.90;;;;;;5055069;28;20469;-71
2023/03/15 12:01:41;;;;;;;;;;;14.00;99.90;;;;;;5054667;28;20358;-71
2023/03/15 12:04:25;;;;;;;;;;;14.10;99.90;;;;;;5054686;28;19909;-71
2023/03/15 12:06:55;;;;;;;;;;;14.00;99.90;;;;;;5055091;28;19909;-71
2023/03/15 12:09:35;;;;;;;;;;;14.10;99.90;;;;;;5054924;28;19913;-71
2023/03/15 12:12:03;;;;;;;;;;;14.20;99.90;;;;;;5055343;28;19909;-71
2023/03/15 12:14:36;;;;;;;;;;;14.20;99.90;;;;;;5054830;28;19909;-71
2023/03/15 12:17:20;;;;;;;;;;;14.30;99.60;;;;;;5055252;28;19909;-71
2023/03/15 12:19:45;;;;;;;;;;;14.40;98.50;;;;;;5054638;28;19913;-71
2023/03/15 12:22:15;;;;;;;;;;;14.30;98.50;;;;;;5054191;28;19916;-71
2023/03/15 12:24:42;;;;;;;;;;;14.30;96.70;;;;;;5053578;28;19912;-71
2023/03/15 12:27:17;;;;;;;;;;;14.30;96.20;;;;;;5054608;28;20336;-71
2023/03/15 12:29:47;;;;;;;;;;;14.20;94.10;;;;;;5054117;28;19943;-71
2023/03/15 12:32:18;;;;;;;;;;;14.20;92.30;;;;;;5054566;28;19955;-71
2023/03/15 12:34:53;;;;;;;;;;;14.30;91.80;;;;;;5053326;28;20554;-71
2023/03/15 12:37:30;;;;;;;;;;;14.30;92.30;;;;;;5054327;28;19908;-71
2023/03/15 12:40:19;;;;;;;;;;;14.40;91.60;;;;;;5053713;28;19909;-71
2023/03/15 12:42:44;;;;;;;;;;;14.50;91.30;;;;;;5054162;28;19915;-71
2023/03/15 12:45:16;;;;;;;;;;;14.50;91.20;;;;;;5053766;28;19909;-71
2023/03/15 12:47:48;;;;;;;;;;;14.50;90.80;;;;;;5054685;28;19944;-72
2023/03/15 12:50:32;;;;;;;;;;;14.60;89.70;;;;;;5053802;28;19917;-71
2023/03/15 12:52:59;;;;;;;;;;;14.60;90.30;;;;;;5053951;28;19913;-71
2023/03/15 12:55:27;;;;;;;;;;;14.60;89.70;;;;;;5053971;28;19908;-71
2023/03/15 12:57:56;;;;;;;;;;;14.70;89.30;;;;;;5053593;28;19909;-71
2023/03/15 13:00:24;;;;;;;;;;;14.70;87.70;;;;;;5053728;28;19912;-71
2023/03/15 13:02:52;;;;;;;;;;;14.80;89.00;;;;;;5053560;28;20010;-71
2023/03/15 13:05:22;;;;;;;;;;;14.70;90.00;;;;;;5053842;28;19935;-71
2023/03/15 13:08:03;;;;;;;;;;;14.60;88.20;;;;;;5052297;28;19913;-71
2023/03/15 13:10:36;;;;;;;;;;;14.70;87.80;;;;;;5053474;28;20356;-71
2023/03/15 13:13:22;;;;;;;;;;;14.70;89.50;;;;;;5054095;28;19909;-71
2023/03/15 13:15:53;;;;;;;;;;;14.70;88.60;;;;;;5053521;28;19908;-71
2023/03/15 13:18:23;;;;;;;;;;;14.50;89.10;;;;;;5053713;28;19909;-71
2023/03/15 13:21:05;;;;;;;;;;;14.50;90.00;;;;;;5053363;28;19974;-71
2023/03/15 13:23:33;;;;;;;;;;;14.40;87.50;;;;;;5053219;28;19917;-71
2023/03/15 13:26:07;;;;;;;;;;;14.40;86.00;;;;;;5053396;28;20013;-71
2023/03/15 13:28:41;;;;;;;;;;;14.40;86.00;;;;;;5053644;28;19924;-71
2023/03/15 13:31:23;;;;;;;;;;;14.40;84.90;;;;;;5053256;28;19913;-71
2023/03/15 13:33:51;;;;;;;;;;;14.30;86.70;;;;;;5053078;28;19936;-70
2023/03/15 13:36:22;;;;;;;;;;;14.30;86.00;;;;;;5053634;28;19908;-70
2023/03/15 13:38:48;;;;;;;;;;;14.30;83.80;;;;;;5051039;28;20375;-71
2023/03/15 13:41:16;;;;;;;;;;;14.30;86.10;;;;;;5052730;28;19915;-71
2023/03/15 13:43:42;;;;;;;;;;;14.30;85.00;;;;;;5053477;28;20442;-71
2023/03/15 13:46:08;;;;;;;;;;;14.30;86.30;;;;;;5052978;28;19951;-71
2023/03/15 13:48:39;;;;;;;;;;;14.40;85.50;;;;;;5053486;28;20362;-71
2023/03/15 13:51:21;;;;;;;;;;;14.50;85.70;;;;;;5052974;28;19960;-71
2023/03/15 13:53:48;;;;;;;;;;;14.40;85.60;;;;;;5053408;28;19909;-72
2023/03/15 13:56:15;;;;;;;;;;;14.40;86.20;;;;;;5052867;28;19920;-71
2023/03/15 13:58:42;;;;;;;;;;;14.40;86.40;;;;;;5052772;28;19947;-71
2023/03/15 14:01:10;;;;;;;;;;;14.30;95.20;;;;;;5053069;28;19908;-71
2023/03/15 14:03:36;;;;;;;;;;;14.30;99.90;;;;;;5052790;28;19909;-71
2023/03/15 14:06:02;;;;;;;;;;;14.20;99.90;;;;;;5053310;28;20145;-71
2023/03/15 14:08:30;;;;;;;;;;;14.00;99.90;;;;;;5053293;28;19912;-71
2023/03/15 14:11:01;;;;;;;;;;;13.90;99.90;;;;;;5052157;28;19920;-72
2023/03/15 14:13:31;;;;;;;;;;;13.80;99.90;;;;;;5052733;28;20423;-71
2023/03/15 14:16:04;;;;;;;;;;;13.70;99.90;;;;;;5052542;28;20378;-71
2023/03/15 14:18:34;;;;;;;;;;;13.60;99.90;;;;;;5052247;28;19995;-72
2023/03/15 14:21:00;;;;;;;;;;;13.50;99.90;;;;;;5052081;28;19947;-71
2023/03/15 14:23:27;;;;;;;;;;;13.40;99.90;;;;;;5051288;28;19921;-71
2023/03/15 14:25:54;;;;;;;;;;;13.30;99.90;;;;;;5052609;28;19920;-75